Time;durP1;ratioP1;P1;durP2;ratioP2;P2;SDS_P1;SDS_P2;PMS_P1;PMS_P2;Temp;Humidity;BMP_temperature;BMP_pressure;BME280_temperature;BME280_humidity;BME280_pressure;Samples;Min_cycle;Max_cycle;Signal;HPM_P1;HPM_P2
2022/05/30 00:00:40;;;;;;;3.92;0.63;;;8.00;63.90;;;;;;4143997;28;20061;-85
2022/05/30 00:02:41;;;;;;;5.35;0.70;;;8.00;64.00;;;;;;4149158;28;20021;-86
2022/05/30 00:04:42;;;;;;;2.92;0.57;;;8.00;64.10;;;;;;4131304;28;20318;-86
2022/05/30 00:06:42;;;;;;;10.40;0.73;;;8.00;64.20;;;;;;4130917;28;20034;-85
2022/05/30 00:08:43;;;;;;;6.32;0.80;;;7.90;64.10;;;;;;4132716;28;20087;-85
2022/05/30 00:10:45;;;;;;;4.95;0.90;;;7.90;64.20;;;;;;4132556;28;20030;-85
2022/05/30 00:12:46;;;;;;;7.75;1.20;;;7.90;64.30;;;;;;4130446;28;20034;-85
2022/05/30 00:14:47;;;;;;;6.68;0.77;;;7.80;64.30;;;;;;4128662;28;20097;-85
2022/05/30 00:16:48;;;;;;;6.78;1.15;;;7.80;64.40;;;;;;4145782;28;20723;-86
2022/05/30 00:18:49;;;;;;;4.00;0.90;;;7.80;64.60;;;;;;4131864;28;20042;-85
2022/05/30 00:20:50;;;;;;;7.57;0.93;;;7.80;64.70;;;;;;4133136;28;21019;-86
2022/05/30 00:22:51;;;;;;;8.60;1.00;;;7.80;64.80;;;;;;4128495;28;20033;-86
2022/05/30 00:24:51;;;;;;;4.93;0.80;;;7.70;65.00;;;;;;4133018;28;20427;-86
2022/05/30 00:26:52;;;;;;;5.90;0.88;;;7.70;65.10;;;;;;4133475;28;20369;-85
2022/05/30 00:28:53;;;;;;;10.23;1.20;;;7.70;65.30;;;;;;4133762;28;20056;-85
2022/05/30 00:30:54;;;;;;;8.43;1.13;;;7.70;65.30;;;;;;4127141;28;20061;-86
2022/05/30 00:32:54;;;;;;;9.88;1.27;;;7.70;65.50;;;;;;4134420;28;20403;-85
2022/05/30 00:34:55;;;;;;;7.13;1.10;;;7.60;65.60;;;;;;4128146;28;20033;-85
2022/05/30 00:36:56;;;;;;;5.80;1.02;;;7.60;65.80;;;;;;4145466;28;20059;-83
2022/05/30 00:38:58;;;;;;;6.65;0.95;;;7.60;65.90;;;;;;4116231;28;20423;-86
2022/05/30 00:40:59;;;;;;;8.27;1.30;;;7.60;66.00;;;;;;4131528;28;20110;-85
2022/05/30 00:43:26;;;;;;;8.07;1.42;;;7.60;66.20;;;;;;4130024;28;20043;-85
2022/05/30 00:45:47;;;;;;;8.93;1.23;;;7.60;66.40;;;;;;4124087;28;20041;-85
2022/05/30 00:48:08;;;;;;;4.55;0.93;;;7.60;66.50;;;;;;4129828;28;20453;-86
2022/05/30 00:50:13;;;;;;;6.97;0.95;;;7.60;66.50;;;;;;4125716;28;20023;-85
2022/05/30 00:52:39;;;;;;;7.10;1.10;;;7.60;66.70;;;;;;4131861;28;20536;-85
2022/05/30 00:55:16;;;;;;;5.50;0.98;;;7.60;66.90;;;;;;4131868;28;20041;-85
2022/05/30 00:57:39;;;;;;;8.55;1.13;;;7.60;67.10;;;;;;4132870;28;20037;-85
2022/05/30 01:00:14;;;;;;;4.03;0.82;;;7.60;67.00;;;;;;4128757;28;20088;-85
2022/05/30 01:02:36;;;;;;;5.38;0.70;;;7.60;67.20;;;;;;4132187;28;20065;-85
2022/05/30 01:07:18;;;;;;;6.65;0.95;;;7.60;67.10;;;;;;4145727;28;20083;-85
2022/05/30 01:09:45;;;;;;;11.40;1.50;;;7.60;67.30;;;;;;4125591;28;20030;-86
2022/05/30 01:12:08;;;;;;;8.10;1.20;;;7.60;67.50;;;;;;4134246;28;20057;-84
2022/05/30 01:14:32;;;;;;;6.78;1.15;;;7.60;67.60;;;;;;4132859;28;20515;-86
2022/05/30 01:16:54;;;;;;;2.55;0.80;;;7.60;67.60;;;;;;4135557;28;20816;-85
2022/05/30 01:19:33;;;;;;;4.68;0.85;;;7.60;67.70;;;;;;4129056;28;20093;-85
2022/05/30 01:22:21;;;;;;;7.03;1.00;;;7.60;67.90;;;;;;4143222;28;20033;-85
2022/05/30 01:25:00;;;;;;;6.88;1.02;;;7.60;68.10;;;;;;4142291;28;20035;-84
2022/05/30 01:27:43;;;;;;;5.28;0.80;;;7.70;68.40;;;;;;4144883;28;20029;-85
2022/05/30 01:30:15;;;;;;;10.65;1.15;;;7.60;68.40;;;;;;4133583;28;20402;-86
2022/05/30 01:32:36;;;;;;;6.63;1.05;;;7.60;68.40;;;;;;4132662;28;20748;-86
2022/05/30 01:34:56;;;;;;;3.47;0.70;;;7.70;68.40;;;;;;4126726;28;20033;-86
2022/05/30 01:37:17;;;;;;;3.20;1.05;;;7.70;68.40;;;;;;4133175;28;20575;-86
2022/05/30 01:39:38;;;;;;;7.50;1.00;;;7.70;68.60;;;;;;4133584;28;20041;-87
2022/05/30 01:41:59;;;;;;;6.50;1.10;;;7.80;68.80;;;;;;4148507;28;20060;-86
2022/05/30 01:44:19;;;;;;;4.43;0.98;;;7.70;68.80;;;;;;4130439;28;20030;-87
2022/05/30 01:46:40;;;;;;;6.57;0.90;;;7.80;68.80;;;;;;4131695;28;20022;-86
2022/05/30 01:49:01;;;;;;;8.13;1.30;;;7.80;68.90;;;;;;4134479;28;20041;-86
2022/05/30 01:51:22;;;;;;;7.93;0.95;;;7.80;69.00;;;;;;4129839;28;20384;-85
2022/05/30 01:53:43;;;;;;;5.55;1.05;;;7.90;69.10;;;;;;4133217;28;20038;-85
2022/05/30 01:56:04;;;;;;;7.53;1.30;;;7.90;69.30;;;;;;4127572;28;20037;-86
2022/05/30 01:58:24;;;;;;;4.80;1.00;;;7.90;69.40;;;;;;4128489;28;20033;-84
2022/05/30 02:00:45;;;;;;;6.30;0.88;;;7.90;69.60;;;;;;4128368;28;20559;-85
2022/05/30 02:03:05;;;;;;;4.18;1.08;;;7.90;69.60;;;;;;4128221;28;20042;-86
2022/05/30 02:05:26;;;;;;;9.43;0.88;;;7.90;69.70;;;;;;4127009;28;20037;-86
2022/05/30 02:07:47;;;;;;;5.72;0.93;;;8.00;69.90;;;;;;4129928;28;20030;-86
2022/05/30 02:10:08;;;;;;;9.52;1.15;;;8.00;69.90;;;;;;4127429;28;20030;-84
2022/05/30 02:12:29;;;;;;;7.15;1.27;;;8.00;70.10;;;;;;4126777;28;20124;-86
2022/05/30 02:14:49;;;;;;;4.30;0.80;;;8.00;70.10;;;;;;4125252;28;20035;-86
2022/05/30 02:17:11;;;;;;;8.18;1.20;;;8.10;70.20;;;;;;4125186;28;20048;-84
2022/05/30 02:19:37;;;;;;;8.18;0.95;;;8.10;70.20;;;;;;4129807;28;20718;-86
2022/05/30 02:21:58;;;;;;;5.07;1.00;;;8.10;70.40;;;;;;4126081;28;20080;-86
2022/05/30 02:24:18;;;;;;;8.50;1.05;;;8.10;70.30;;;;;;4129998;28;20026;-86
2022/05/30 02:26:39;;;;;;;8.05;0.90;;;8.10;70.30;;;;;;4127859;28;20060;-86
2022/05/30 02:28:40;;;;;;;6.60;0.88;;;8.20;70.40;;;;;;4133072;28;20034;-86
2022/05/30 02:30:40;;;;;;;8.10;1.13;;;8.20;70.50;;;;;;4134904;28;20030;-85
2022/05/30 02:32:41;;;;;;;3.08;0.82;;;8.20;70.60;;;;;;4126243;28;20037;-86
2022/05/30 02:37:04;;;;;;;8.57;1.00;;;8.20;70.70;;;;;;4133468;28;20072;-86
2022/05/30 02:39:16;;;;;;;3.30;0.80;;;8.30;70.70;;;;;;4130086;28;20984;-84
2022/05/30 02:41:18;;;;;;;5.35;0.60;;;8.30;70.80;;;;;;4132115;28;21114;-86
2022/05/30 02:43:18;;;;;;;4.35;1.25;;;8.30;70.70;;;;;;4132377;28;20025;-86
2022/05/30 02:45:19;;;;;;;3.35;0.80;;;8.30;70.60;;;;;;4134754;28;20105;-85
2022/05/30 02:47:21;;;;;;;3.33;0.82;;;8.30;70.60;;;;;;4130365;28;20137;-85
2022/05/30 02:49:21;;;;;;;6.13;1.10;;;8.30;70.60;;;;;;4149153;28;20052;-85
2022/05/30 02:51:22;;;;;;;2.45;0.80;;;8.30;70.60;;;;;;4137819;28;20056;-85
2022/05/30 02:53:23;;;;;;;2.72;1.30;;;8.30;70.70;;;;;;4131573;28;20084;-85
2022/05/30 02:55:23;;;;;;;5.70;1.35;;;8.30;70.70;;;;;;4133432;28;20061;-84
2022/05/30 02:57:24;;;;;;;6.22;0.82;;;8.40;70.80;;;;;;4131682;28;20095;-84
2022/05/30 02:59:26;;;;;;;7.22;0.85;;;8.40;70.80;;;;;;4128423;28;20061;-85
2022/05/30 03:01:27;;;;;;;4.18;0.93;;;8.40;70.90;;;;;;4136797;28;20438;-84
2022/05/30 03:03:27;;;;;;;3.38;0.95;;;8.40;70.90;;;;;;4145061;28;20022;-84
2022/05/30 03:05:30;;;;;;;3.35;0.70;;;8.40;71.00;;;;;;4133487;28;20033;-84
2022/05/30 03:07:31;;;;;;;3.57;0.70;;;8.50;71.10;;;;;;4133974;28;20100;-84
2022/05/30 03:09:31;;;;;;;5.05;0.90;;;8.40;71.10;;;;;;4132464;28;20718;-85
2022/05/30 03:11:33;;;;;;;1.63;0.75;;;8.40;71.10;;;;;;4138358;28;20057;-85
2022/05/30 03:13:36;;;;;;;4.22;0.98;;;8.50;71.30;;;;;;4131537;28;20038;-84
2022/05/30 03:15:37;;;;;;;4.70;1.33;;;8.50;71.20;;;;;;4134910;28;20032;-85
2022/05/30 03:17:37;;;;;;;5.10;1.17;;;8.50;71.30;;;;;;4132291;28;20120;-85
2022/05/30 03:19:38;;;;;;;4.53;1.05;;;8.60;71.30;;;;;;4128183;28;20038;-85
2022/05/30 03:21:39;;;;;;;8.57;1.30;;;8.50;71.30;;;;;;4130246;28;20037;-85
2022/05/30 03:23:39;;;;;;;4.90;1.15;;;8.60;71.40;;;;;;4132307;28;20022;-85
2022/05/30 03:25:40;;;;;;;7.25;1.30;;;8.60;71.40;;;;;;4133614;28;20160;-86
2022/05/30 03:27:41;;;;;;;10.68;1.35;;;8.60;71.40;;;;;;4114596;28;20085;-86
2022/05/30 03:29:41;;;;;;;5.93;1.15;;;8.60;71.40;;;;;;4145477;28;20030;-85
2022/05/30 03:31:42;;;;;;;5.90;1.27;;;8.60;71.50;;;;;;4132597;28;20117;-86
2022/05/30 03:33:43;;;;;;;3.42;0.85;;;8.70;71.60;;;;;;4131018;28;20773;-85
2022/05/30 03:35:44;;;;;;;7.32;0.95;;;8.60;71.50;;;;;;4127269;28;20411;-85
2022/05/30 03:37:45;;;;;;;8.85;1.42;;;8.60;71.60;;;;;;4134214;28;20030;-86
2022/05/30 03:39:47;;;;;;;7.45;1.27;;;8.70;71.60;;;;;;4132084;28;20431;-84
2022/05/30 03:41:48;;;;;;;4.25;0.93;;;8.70;71.60;;;;;;4136550;28;20057;-87
2022/05/30 03:43:49;;;;;;;3.65;1.00;;;8.70;71.60;;;;;;4131239;28;20037;-85
2022/05/30 03:45:50;;;;;;;4.13;1.10;;;8.70;71.60;;;;;;4128671;28;20053;-86
2022/05/30 03:47:50;;;;;;;9.15;1.63;;;8.70;71.60;;;;;;4129192;28;21444;-87
2022/05/30 03:50:01;;;;;;;7.35;1.00;;;8.70;71.50;;;;;;4136488;28;20029;-85
2022/05/30 03:52:02;;;;;;;4.10;1.02;;;8.80;71.60;;;;;;4133030;28;20038;-85
2022/05/30 03:54:03;;;;;;;7.32;1.25;;;8.80;71.60;;;;;;4133281;28;20143;-86
2022/05/30 03:56:04;;;;;;;9.60;1.52;;;8.80;71.60;;;;;;4136443;28;20037;-86
2022/05/30 03:58:06;;;;;;;8.77;1.20;;;8.80;72.40;;;;;;4136245;28;20030;-86
2022/05/30 04:00:18;;;;;;;7.07;1.13;;;8.80;71.60;;;;;;4134488;28;20112;-86
2022/05/30 04:02:19;;;;;;;5.20;0.90;;;8.90;71.70;;;;;;4127110;28;20029;-86
2022/05/30 04:04:20;;;;;;;7.25;1.30;;;8.80;71.60;;;;;;4133356;28;20089;-85
2022/05/30 04:06:20;;;;;;;5.65;1.35;;;8.80;71.50;;;;;;4127308;28;20029;-85
2022/05/30 04:08:21;;;;;;;2.72;1.02;;;8.90;71.60;;;;;;4130034;28;20026;-87
2022/05/30 04:10:22;;;;;;;7.03;1.30;;;8.90;71.60;;;;;;4113107;28;20022;-86
2022/05/30 04:12:22;;;;;;;3.85;1.30;;;8.90;71.60;;;;;;4128642;28;20026;-86
2022/05/30 04:14:23;;;;;;;10.10;1.48;;;8.90;71.70;;;;;;4133669;28;20030;-86
2022/05/30 04:16:24;;;;;;;8.80;1.60;;;8.90;71.90;;;;;;4130413;28;20033;-87
2022/05/30 04:18:24;;;;;;;6.18;1.58;;;8.90;72.60;;;;;;4130588;28;20030;-87
2022/05/30 04:20:26;;;;;;;6.47;1.38;;;8.90;71.90;;;;;;4130638;28;20452;-86
2022/05/30 04:22:27;;;;;;;5.15;1.65;;;8.90;71.90;;;;;;4128300;28;20407;-85
2022/05/30 04:24:28;;;;;;;7.97;1.58;;;8.90;72.00;;;;;;4144310;28;20025;-86
2022/05/30 04:26:29;;;;;;;6.38;1.25;;;8.90;72.00;;;;;;4124747;28;20030;-86
2022/05/30 04:28:30;;;;;;;5.10;1.20;;;9.00;72.20;;;;;;4127732;28;20080;-86
2022/05/30 04:30:31;;;;;;;4.88;1.00;;;9.00;72.20;;;;;;4127299;28;20038;-86
2022/05/30 04:32:32;;;;;;;7.07;1.10;;;9.00;72.30;;;;;;4131803;28;20036;-85
2022/05/30 04:34:33;;;;;;;4.65;1.25;;;9.10;72.40;;;;;;4126954;28;20112;-85
2022/05/30 04:36:34;;;;;;;6.38;1.48;;;9.00;72.40;;;;;;4126370;28;20030;-85
2022/05/30 04:38:35;;;;;;;7.18;1.48;;;9.10;72.50;;;;;;4126135;28;20161;-86
2022/05/30 04:40:35;;;;;;;4.70;1.00;;;9.00;72.50;;;;;;4143596;28;20022;-86
2022/05/30 04:42:36;;;;;;;7.80;1.50;;;9.10;72.50;;;;;;4136375;28;20030;-87
2022/05/30 04:44:37;;;;;;;8.90;1.20;;;9.10;72.50;;;;;;4127363;28;20026;-86
2022/05/30 04:46:38;;;;;;;7.18;1.15;;;9.10;72.60;;;;;;4128791;28;20030;-86
2022/05/30 04:48:40;;;;;;;9.25;1.58;;;9.10;72.60;;;;;;4127796;28;20084;-86
2022/05/30 04:50:40;;;;;;;12.65;1.92;;;9.20;72.70;;;;;;4134531;28;20037;-86
2022/05/30 04:52:43;;;;;;;3.72;1.17;;;9.20;72.70;;;;;;4132057;28;20048;-85
2022/05/30 04:54:43;;;;;;;7.05;1.20;;;9.30;73.50;;;;;;4135380;28;20044;-87
2022/05/30 04:56:44;;;;;;;7.68;1.30;;;9.20;72.80;;;;;;4126906;28;20113;-87
2022/05/30 04:58:49;;;;;;;12.07;1.83;;;9.20;72.80;;;;;;4133072;28;20049;-86
2022/05/30 05:00:56;;;;;;;5.57;1.45;;;9.30;72.90;;;;;;4141453;28;20029;-86
2022/05/30 05:02:57;;;;;;;4.55;1.10;;;9.30;72.90;;;;;;4130984;28;20053;-85
2022/05/30 05:04:58;;;;;;;6.93;1.23;;;9.30;72.90;;;;;;4131831;28;20022;-85
2022/05/30 05:06:58;;;;;;;11.85;1.58;;;9.40;73.00;;;;;;4132305;28;20084;-87
2022/05/30 05:09:29;;;;;;;8.50;1.67;;;9.40;73.00;;;;;;4138434;28;20030;-85
2022/05/30 05:11:35;;;;;;;4.35;1.02;;;9.40;74.00;;;;;;4157787;28;20400;-86
2022/05/30 05:13:36;;;;;;;4.43;1.23;;;9.50;73.00;;;;;;4138862;28;20026;-86
2022/05/30 05:15:36;;;;;;;8.73;1.30;;;9.50;72.90;;;;;;4143874;28;20028;-86
2022/05/30 05:17:37;;;;;;;5.60;1.58;;;9.50;72.90;;;;;;4134495;28;20116;-86
2022/05/30 05:19:42;;;;;;;6.32;1.23;;;9.60;72.80;;;;;;4142989;28;20471;-86
2022/05/30 05:21:45;;;;;;;13.27;1.60;;;9.60;72.80;;;;;;4137216;28;20026;-86
2022/05/30 05:23:46;;;;;;;;;;;9.60;72.70;;;;;;4144111;28;20029;-86
2022/05/30 05:25:46;;;;;;;5.85;1.13;;;9.70;73.40;;;;;;4135910;28;19919;-86
2022/05/30 05:27:50;;;;;;;9.68;1.65;;;9.70;72.50;;;;;;4155800;28;20026;-87
2022/05/30 05:29:55;;;;;;;7.78;1.52;;;9.70;72.50;;;;;;4136452;28;20042;-86
2022/05/30 05:31:57;;;;;;;7.55;1.25;;;9.70;72.50;;;;;;4141624;28;20022;-87
2022/05/30 05:33:58;;;;;;;7.57;1.20;;;9.80;72.50;;;;;;4138519;28;20030;-86
2022/05/30 05:36:00;;;;;;;10.05;1.15;;;9.80;72.50;;;;;;4134492;28;20076;-86
2022/05/30 05:38:01;;;;;;;8.23;1.27;;;9.90;72.60;;;;;;4135271;28;21449;-86
2022/05/30 05:40:01;;;;;;;7.22;1.20;;;9.80;72.50;;;;;;4134378;28;20060;-86
2022/05/30 05:42:02;;;;;;;4.80;1.00;;;9.90;72.60;;;;;;4139590;28;20021;-87
2022/05/30 05:44:03;;;;;;;9.05;1.15;;;9.90;72.40;;;;;;4135236;28;20057;-86
2022/05/30 05:46:04;;;;;;;5.60;1.08;;;10.00;72.40;;;;;;4128014;28;20071;-86
2022/05/30 05:48:06;;;;;;;9.27;1.55;;;10.10;72.40;;;;;;4155666;28;20144;-86
2022/05/30 05:50:07;;;;;;;5.05;1.00;;;10.10;72.30;;;;;;4133577;28;20030;-86
2022/05/30 05:52:08;;;;;;;7.80;1.25;;;10.10;72.20;;;;;;4139577;28;20170;-85
2022/05/30 05:54:09;;;;;;;9.98;1.13;;;10.10;72.10;;;;;;4135711;28;20116;-86
2022/05/30 05:56:17;;;;;;;8.15;1.38;;;10.10;72.00;;;;;;4132545;28;20040;-87
2022/05/30 05:58:17;;;;;;;6.80;1.20;;;10.20;71.80;;;;;;4130342;28;20037;-87
2022/05/30 06:00:19;;;;;;;4.80;1.23;;;10.20;71.70;;;;;;4137354;28;20170;-86
2022/05/30 06:02:22;;;;;;;3.75;1.17;;;10.20;71.60;;;;;;4134536;28;20027;-87
2022/05/30 06:04:23;;;;;;;6.65;1.20;;;10.20;71.50;;;;;;4125388;28;20033;-86
2022/05/30 06:06:26;;;;;;;6.80;1.10;;;10.30;72.10;;;;;;4124046;28;20034;-87
2022/05/30 06:08:26;;;;;;;4.90;0.80;;;10.30;71.30;;;;;;4138191;28;20018;-86
2022/05/30 06:10:27;;;;;;;5.20;0.93;;;10.40;71.20;;;;;;4141425;28;20088;-86
2022/05/30 06:12:28;;;;;;;5.28;1.13;;;10.50;70.90;;;;;;4140992;28;20065;-87
2022/05/30 06:14:28;;;;;;;5.68;0.70;;;10.50;70.60;;;;;;4141440;28;20062;-87
2022/05/30 06:16:32;;;;;;;5.20;0.68;;;10.50;70.40;;;;;;4152167;28;20029;-85
2022/05/30 06:18:34;;;;;;;6.05;0.80;;;10.60;70.20;;;;;;4139097;28;20365;-87
2022/05/30 06:20:34;;;;;;;6.95;0.95;;;10.70;69.80;;;;;;4154673;28;20033;-87
2022/05/30 06:22:35;;;;;;;9.13;1.25;;;10.70;69.10;;;;;;4120667;28;20035;-87
2022/05/30 06:24:36;;;;;;;3.15;0.70;;;10.70;68.70;;;;;;4142351;28;20487;-87
2022/05/30 06:26:37;;;;;;;4.53;0.88;;;10.80;68.00;;;;;;4136878;28;20128;-87
2022/05/30 06:28:38;;;;;;;6.13;0.65;;;10.80;67.80;;;;;;4137665;28;20030;-88
2022/05/30 06:30:39;;;;;;;5.32;0.82;;;10.90;67.30;;;;;;4139823;28;20135;-87
2022/05/30 06:32:40;;;;;;;5.47;0.80;;;10.90;66.90;;;;;;4119957;28;20026;-86
2022/05/30 06:34:41;;;;;;;5.78;0.63;;;10.90;66.00;;;;;;4141205;28;20049;-86
2022/05/30 06:36:42;;;;;;;4.57;0.80;;;10.90;65.80;;;;;;4138697;28;20052;-86
2022/05/30 06:38:44;;;;;;;6.78;1.08;;;10.90;65.60;;;;;;4136979;28;20026;-86
2022/05/30 06:40:45;;;;;;;4.13;0.70;;;11.00;65.40;;;;;;4154157;28;20025;-85
2022/05/30 06:42:45;;;;;;;6.10;0.80;;;11.00;65.30;;;;;;4138543;28;20032;-86
2022/05/30 06:44:46;;;;;;;6.00;0.95;;;11.10;65.30;;;;;;4141627;28;20090;-86
2022/05/30 06:46:47;;;;;;;6.68;0.55;;;11.10;65.30;;;;;;4153175;28;20048;-86
2022/05/30 06:48:48;;;;;;;3.53;0.70;;;11.10;64.90;;;;;;4151156;28;20033;-87
2022/05/30 06:50:49;;;;;;;3.17;0.52;;;11.20;64.40;;;;;;4154037;28;20101;-86
2022/05/30 06:52:50;;;;;;;5.82;0.50;;;11.20;64.30;;;;;;4148261;28;20022;-87
2022/05/30 06:54:50;;;;;;;4.82;0.57;;;11.20;64.10;;;;;;4140033;28;20034;-87
2022/05/30 06:59:11;;;;;;;5.13;0.68;;;11.30;63.80;;;;;;4134834;28;20034;-87
2022/05/30 07:01:12;;;;;;;8.23;0.77;;;11.30;63.70;;;;;;4135998;28;20037;-86
2022/05/30 07:03:14;;;;;;;5.25;0.82;;;11.40;63.70;;;;;;4132769;28;20029;-88
2022/05/30 07:05:15;;;;;;;8.27;0.93;;;11.50;63.80;;;;;;4133626;28;20034;-88
2022/05/30 07:07:15;;;;;;;4.80;0.75;;;11.40;63.40;;;;;;4139922;28;20064;-87
2022/05/30 07:09:16;;;;;;;6.15;0.80;;;11.50;63.50;;;;;;4130321;28;20586;-87
2022/05/30 07:11:19;;;;;;;7.57;1.05;;;11.50;63.40;;;;;;4150163;28;20107;-87
2022/05/30 07:13:20;;;;;;;5.53;0.52;;;11.60;63.30;;;;;;4155355;28;20091;-88
2022/05/30 07:15:21;;;;;;;3.72;0.70;;;11.60;63.30;;;;;;4147695;28;20038;-87
2022/05/30 07:17:21;;;;;;;3.30;0.95;;;11.60;62.60;;;;;;4146178;28;20112;-88
2022/05/30 07:19:22;;;;;;;6.25;0.75;;;11.60;62.60;;;;;;4150267;28;20624;-87
2022/05/30 07:21:23;;;;;;;5.03;0.90;;;11.70;62.50;;;;;;4157247;28;20036;-87
2022/05/30 07:23:24;;;;;;;5.20;0.70;;;11.70;62.70;;;;;;4123405;28;20031;-87
2022/05/30 07:25:24;;;;;;;9.10;0.98;;;11.80;62.70;;;;;;4152421;28;20063;-86
2022/05/30 07:27:25;;;;;;;2.97;0.70;;;11.80;62.50;;;;;;4136744;28;20026;-88
2022/05/30 07:29:28;;;;;;;6.70;0.90;;;11.80;62.20;;;;;;4137076;28;20873;-87
2022/05/30 07:31:29;;;;;;;8.73;0.80;;;11.90;62.00;;;;;;4119200;28;20113;-87
2022/05/30 07:33:33;;;;;;;10.10;0.80;;;11.80;61.90;;;;;;4137283;28;20056;-88
2022/05/30 07:35:34;;;;;;;4.72;0.93;;;11.90;61.90;;;;;;4136566;28;20067;-88
2022/05/30 07:37:35;;;;;;;4.57;0.88;;;12.00;61.80;;;;;;4145428;28;20075;-87
2022/05/30 07:39:37;;;;;;;5.43;0.98;;;12.00;61.50;;;;;;4134300;28;20168;-88
2022/05/30 07:41:38;;;;;;;6.43;0.90;;;12.00;61.30;;;;;;4138000;28;20045;-88
2022/05/30 07:43:39;;;;;;;6.05;0.77;;;12.00;61.20;;;;;;4150324;28;20057;-88
2022/05/30 07:45:41;;;;;;;3.67;0.80;;;12.10;61.00;;;;;;4137637;28;20073;-87
2022/05/30 07:47:41;;;;;;;5.32;1.15;;;12.10;60.90;;;;;;4121143;28;20125;-87
2022/05/30 07:49:43;;;;;;;3.38;0.70;;;12.10;60.90;;;;;;4152474;28;20850;-86
2022/05/30 07:51:45;;;;;;;4.53;0.80;;;12.20;61.00;;;;;;4138767;28;20586;-87
2022/05/30 07:53:46;;;;;;;4.53;0.98;;;12.20;60.80;;;;;;4137893;28;20033;-87
2022/05/30 07:55:46;;;;;;;5.97;0.85;;;12.20;60.50;;;;;;4137550;28;20029;-88
2022/05/30 07:58:00;;;;;;;3.78;0.73;;;12.20;59.50;;;;;;4119081;28;20034;-88
2022/05/30 08:00:01;;;;;;;;;;;12.30;59.60;;;;;;4150150;28;20033;-88
2022/05/30 08:02:03;;;;;;;2.00;0.77;;;12.30;59.50;;;;;;4135013;28;19909;-88
2022/05/30 08:04:04;;;;;;;4.60;0.63;;;12.40;60.00;;;;;;4133596;28;20160;-89
2022/05/30 08:06:07;;;;;;;3.00;0.60;;;12.40;59.60;;;;;;4121931;28;20112;-89
2022/05/30 08:08:08;;;;;;;4.05;0.80;;;12.40;59.70;;;;;;4153599;28;20100;-89
2022/05/30 08:10:10;;;;;;;4.07;0.80;;;12.50;59.80;;;;;;4120150;28;20463;-88
2022/05/30 08:12:12;;;;;;;8.60;1.00;;;12.50;59.70;;;;;;4134424;28;20042;-87
2022/05/30 08:14:12;;;;;;;4.80;0.40;;;12.50;59.60;;;;;;4148953;28;20754;-88
2022/05/30 08:16:16;;;;;;;6.65;1.08;;;12.60;59.50;;;;;;4136485;28;20048;-88
2022/05/30 08:18:18;;;;;;;3.45;0.57;;;12.60;59.30;;;;;;4138360;28;20036;-88
2022/05/30 08:20:19;;;;;;;5.10;0.50;;;12.70;58.90;;;;;;4134824;28;20034;-88
2022/05/30 08:22:22;;;;;;;5.82;0.50;;;12.80;58.70;;;;;;4138262;28;20040;-87
2022/05/30 08:24:22;;;;;;;2.20;0.45;;;12.80;58.60;;;;;;4137721;28;20037;-88
2022/05/30 08:26:23;;;;;;;2.70;0.55;;;12.80;58.10;;;;;;4135894;28;20030;-88
2022/05/30 08:28:24;;;;;;;2.85;0.40;;;12.90;57.80;;;;;;4134803;28;20092;-88
2022/05/30 08:30:25;;;;;;;4.70;0.50;;;12.90;57.70;;;;;;4135565;28;20095;-87
2022/05/30 08:32:36;;;;;;;4.63;0.50;;;13.00;57.50;;;;;;4138534;28;20046;-89
2022/05/30 08:34:37;;;;;;;1.52;0.35;;;13.00;57.10;;;;;;4136680;28;20026;-88
2022/05/30 08:36:40;;;;;;;3.20;0.50;;;13.10;57.20;;;;;;4131955;28;20038;-89
2022/05/30 08:38:42;;;;;;;4.35;0.77;;;13.10;56.60;;;;;;4119414;28;20046;-87
2022/05/30 08:43:06;;;;;;;4.65;0.85;;;13.20;56.90;;;;;;4152209;28;20026;-89
2022/05/30 08:45:09;;;;;;;9.10;0.63;;;13.30;56.90;;;;;;4136131;28;20148;-89
2022/05/30 08:47:38;;;;;;;3.42;0.40;;;13.30;57.20;;;;;;4138992;28;20536;-88
2022/05/30 08:49:50;;;;;;;2.30;0.43;;;13.40;57.00;;;;;;4134010;28;20168;-88
2022/05/30 08:52:06;;;;;;;3.55;0.50;;;13.50;56.60;;;;;;4135574;28;20030;-87
2022/05/30 08:54:38;;;;;;;5.95;0.60;;;13.50;56.00;;;;;;4180958;27;2061165;-87
2022/05/30 08:56:49;;;;;;;3.63;0.57;;;13.60;55.80;;;;;;4230322;27;20452;-86
2022/05/30 08:59:32;;;;;;;1.33;0.30;;;13.70;55.30;;;;;;4202800;28;20047;-87
2022/05/30 09:01:41;;;;;;;2.60;0.40;;;13.70;55.20;;;;;;4168013;28;20064;-85
2022/05/30 09:04:10;;;;;;;6.40;0.68;;;13.70;55.40;;;;;;4197273;28;20158;-88
2022/05/30 09:06:16;;;;;;;2.75;0.52;;;13.80;54.90;;;;;;4212982;28;20027;-86
2022/05/30 09:08:29;;;;;;;2.85;0.30;;;13.90;55.20;;;;;;4229684;27;20031;-86
2022/05/30 09:10:45;;;;;;;1.35;0.40;;;14.00;54.50;;;;;;4228884;27;20028;-87
2022/05/30 09:12:56;;;;;;;4.32;0.50;;;14.00;54.30;;;;;;4215873;28;20474;-87
2022/05/30 09:15:15;;;;;;;1.95;0.43;;;14.00;53.80;;;;;;4233808;28;20110;-87
2022/05/30 09:17:33;;;;;;;1.08;0.50;;;14.00;53.70;;;;;;4236345;28;20568;-86
2022/05/30 09:19:34;;;;;;;3.13;0.50;;;14.00;53.40;;;;;;4219195;28;20660;-86
2022/05/30 09:21:36;;;;;;;2.75;0.60;;;14.10;53.60;;;;;;4220229;28;20047;-87
2022/05/30 09:23:40;;;;;;;2.60;0.68;;;14.10;53.20;;;;;;4216789;28;20031;-87
2022/05/30 09:25:57;;;;;;;2.60;0.60;;;14.10;53.30;;;;;;4219942;28;20027;-87
2022/05/30 09:28:05;;;;;;;1.73;0.50;;;14.20;53.50;;;;;;4219294;28;20108;-87
2022/05/30 09:30:09;;;;;;;2.92;0.80;;;14.20;53.70;;;;;;4216140;28;20020;-86
2022/05/30 09:32:28;;;;;;;4.20;0.70;;;14.20;52.00;;;;;;4197441;28;20509;-87
2022/05/30 09:34:49;;;;;;;8.07;0.90;;;14.20;52.10;;;;;;4215522;28;20074;-87
2022/05/30 09:36:53;;;;;;;1.27;0.57;;;14.20;52.50;;;;;;4215032;28;20027;-87
2022/05/30 09:39:01;;;;;;;3.55;0.80;;;14.20;52.00;;;;;;4216225;28;20077;-87
2022/05/30 09:41:06;;;;;;;5.75;0.65;;;14.20;52.50;;;;;;4217153;28;20031;-87
2022/05/30 09:43:25;;;;;;;6.05;1.00;;;14.20;52.70;;;;;;4214384;28;20127;-86
2022/05/30 09:45:38;;;;;;;3.30;0.52;;;14.20;51.20;;;;;;4168591;28;20051;-85
2022/05/30 09:48:23;;;;;;;5.10;0.57;;;14.20;52.10;;;;;;4167809;28;20029;-87
2022/05/30 09:50:25;;;;;;;4.20;0.70;;;14.20;51.60;;;;;;4182657;28;20135;-87
2022/05/30 09:52:37;;;;;;;1.77;0.43;;;14.20;52.50;;;;;;4166047;28;20017;-87
2022/05/30 09:54:38;;;;;;;4.05;0.57;;;14.20;52.60;;;;;;4165056;28;20087;-87
2022/05/30 09:56:45;;;;;;;8.77;0.70;;;14.20;52.60;;;;;;4153475;28;20161;-87
2022/05/30 09:59:02;;;;;;;1.15;0.65;;;14.30;52.50;;;;;;4182642;28;20029;-87
2022/05/30 10:01:03;;;;;;;6.65;0.73;;;14.30;52.40;;;;;;4184012;28;20045;-87
2022/05/30 10:03:23;;;;;;;4.63;0.60;;;14.30;52.60;;;;;;4182876;28;20538;-86
2022/05/30 10:05:28;;;;;;;4.35;0.80;;;14.30;52.30;;;;;;4172192;28;20049;-86
2022/05/30 10:07:29;;;;;;;7.53;0.82;;;14.30;51.70;;;;;;4161592;28;20120;-85
2022/05/30 10:09:29;;;;;;;2.08;0.65;;;14.30;51.10;;;;;;4172264;28;20040;-86
2022/05/30 10:11:32;;;;;;;2.28;0.68;;;14.30;51.20;;;;;;4172167;28;20051;-86
2022/05/30 10:13:39;;;;;;;5.00;0.57;;;14.30;51.80;;;;;;4153402;28;20087;-86
2022/05/30 10:15:53;;;;;;;6.20;0.75;;;14.20;52.10;;;;;;4161528;28;20109;-86
2022/05/30 10:17:58;;;;;;;2.05;0.50;;;14.20;52.30;;;;;;4199847;28;20025;-86
2022/05/30 10:20:12;;;;;;;5.15;0.90;;;14.20;52.50;;;;;;4203742;28;20534;-86
2022/05/30 10:30:07;;;;;;;3.58;0.60;;;14.10;52.70;;;;;;4221658;28;20020;-86
2022/05/30 10:32:25;;;;;;;4.97;0.85;;;14.10;52.70;;;;;;4222101;27;20122;-87
2022/05/30 10:34:53;;;;;;;1.63;0.65;;;14.10;53.10;;;;;;4204065;28;20035;-85
2022/05/30 10:37:07;;;;;;;4.00;0.60;;;14.10;53.20;;;;;;4207125;28;20024;-86
2022/05/30 10:39:14;;;;;;;0.98;0.40;;;14.10;53.10;;;;;;4205680;28;20536;-85
2022/05/30 10:41:21;;;;;;;4.40;0.60;;;14.10;53.00;;;;;;4201710;28;20103;-86
2022/05/30 10:43:24;;;;;;;1.33;0.52;;;14.20;53.20;;;;;;4207282;28;20646;-86
2022/05/30 10:45:28;;;;;;;6.53;0.50;;;14.20;53.30;;;;;;4206095;28;20110;-86
2022/05/30 10:47:50;;;;;;;7.50;0.90;;;14.20;53.10;;;;;;4201578;28;20441;-86
2022/05/30 10:50:04;;;;;;;2.47;0.30;;;14.30;52.80;;;;;;4202265;28;20024;-86
2022/05/30 10:52:13;;;;;;;4.05;0.60;;;14.20;52.30;;;;;;4205292;28;20050;-86
2022/05/30 10:54:30;;;;;;;1.42;0.50;;;14.20;52.30;;;;;;4208072;28;20382;-86
2022/05/30 10:56:52;;;;;;;3.15;0.50;;;14.20;52.00;;;;;;4183948;28;20024;-86
2022/05/30 10:59:22;;;;;;;3.00;1.00;;;14.20;52.20;;;;;;4207430;28;20024;-86
2022/05/30 11:01:39;;;;;;;1.70;0.70;;;14.20;52.20;;;;;;4205871;28;20554;-86
2022/05/30 11:04:20;;;;;;;1.15;0.47;;;14.20;52.30;;;;;;4190468;28;20138;-85
2022/05/30 11:06:27;;;;;;;4.35;0.80;;;14.10;52.30;;;;;;4206246;28;20044;-86
2022/05/30 11:08:38;;;;;;;3.50;0.88;;;14.10;52.50;;;;;;4206868;28;20032;-86
2022/05/30 11:10:56;;;;;;;4.43;0.87;;;14.10;52.40;;;;;;4186978;28;20123;-85
2022/05/30 11:13:13;;;;;;;7.38;0.80;;;14.10;52.20;;;;;;4204808;28;20119;-85
2022/05/30 11:15:21;;;;;;;5.57;0.60;;;14.00;51.50;;;;;;4202940;28;20452;-85
2022/05/30 11:17:44;;;;;;;7.70;0.52;;;14.00;51.90;;;;;;4205869;28;20024;-84
2022/05/30 11:19:54;;;;;;;1.90;0.60;;;14.00;52.40;;;;;;4153005;28;20036;-86
2022/05/30 11:22:12;;;;;;;1.98;0.50;;;14.00;52.60;;;;;;4205156;28;20214;-86
2022/05/30 11:24:14;;;;;;;4.70;1.40;;;13.90;52.60;;;;;;4205491;28;20401;-85